Nykobing, Denmark
Current Conditions -  °F | °C
As of 1:50 PM on Thursday 30 Oct 2014 (Local Time) from EKRK Reporting Station
Few Clouds Few Clouds  
Wind Chill: 52°   Ceiling: Unl
Heat Index: 52°   Visibility: 6mi
Dew Point: 41°   Wind: 7mph
Humidity: 67%   Direction: 280°W
Pressure: 30.24"   Gusts: NA
Location:  55.94°N, 11.65°E
Report Text: EKRK 301250Z AUTO 28006KT 9999NDV FEW027/// 11/05 Q1024
Loading
Personal Weather Stations






























Interactive Weather Map New forecast layout! Learn more

10-Day Weather Forecast

Advertisements
Track Severe Weather on mobile